Time;durP1;ratioP1;P1;durP2;ratioP2;P2;SDS_P1;SDS_P2;PMS_P1;PMS_P2;Temp;Humidity;BMP_temperature;BMP_pressure;BME280_temperature;BME280_humidity;BME280_pressure;Samples;Min_cycle;Max_cycle;Signal;HPM_P1;HPM_P2
2023/09/30 00:02:14;;;;;;;4.03;2.22;;;15.90;99.90;;;;;;5040263;28;20196;-72
2023/09/30 00:04:40;;;;;;;3.92;2.13;;;15.90;99.90;;;;;;5039327;28;20181;-70
2023/09/30 00:07:05;;;;;;;5.15;2.25;;;15.80;99.90;;;;;;5037031;28;20201;-68
2023/09/30 00:09:33;;;;;;;3.78;2.25;;;15.90;99.90;;;;;;5039560;28;20188;-69
2023/09/30 00:11:59;;;;;;;4.07;2.33;;;15.80;99.90;;;;;;5055637;28;20240;-69
2023/09/30 00:14:29;;;;;;;3.35;2.15;;;15.80;99.90;;;;;;5038197;28;20181;-70
2023/09/30 00:16:57;;;;;;;3.67;2.30;;;15.80;99.90;;;;;;5060184;28;20208;-72
2023/09/30 00:19:26;;;;;;;4.95;2.20;;;15.70;99.90;;;;;;5036714;28;20237;-72
2023/09/30 00:21:51;;;;;;;4.32;2.55;;;15.70;99.90;;;;;;5040194;28;20239;-66
2023/09/30 00:24:17;;;;;;;5.82;2.50;;;15.70;99.90;;;;;;5036321;28;20239;-71
2023/09/30 00:26:42;;;;;;;6.15;2.03;;;15.70;99.90;;;;;;5039705;28;20212;-71
2023/09/30 00:29:10;;;;;;;6.53;2.47;;;15.60;99.90;;;;;;5038261;28;20177;-70
2023/09/30 00:31:38;;;;;;;5.32;2.60;;;15.60;99.90;;;;;;5037271;28;20246;-71
2023/09/30 00:34:05;;;;;;;6.63;2.20;;;15.60;99.90;;;;;;5037041;28;20242;-71
2023/09/30 00:36:33;;;;;;;5.72;2.35;;;15.60;99.90;;;;;;5036205;28;20189;-72
2023/09/30 00:38:59;;;;;;;5.22;2.50;;;15.60;99.90;;;;;;5039046;28;20193;-70
2023/09/30 00:41:24;;;;;;;4.47;2.60;;;15.50;99.90;;;;;;5037086;28;20192;-71
2023/09/30 00:43:50;;;;;;;4.82;2.10;;;15.50;99.90;;;;;;5037197;28;20219;-71
2023/09/30 00:46:32;;;;;;;4.07;2.40;;;15.50;99.90;;;;;;5036935;28;20181;-71
2023/09/30 00:49:02;;;;;;;4.45;2.28;;;15.50;99.90;;;;;;5039181;28;20204;-70
2023/09/30 00:51:28;;;;;;;5.57;2.60;;;15.50;99.90;;;;;;5037198;28;20201;-71
2023/09/30 00:53:59;;;;;;;4.72;2.20;;;15.50;99.90;;;;;;5038763;28;20178;-68
2023/09/30 00:56:27;;;;;;;4.15;2.30;;;15.50;99.90;;;;;;5038344;28;20482;-68
2023/09/30 00:58:56;;;;;;;4.57;2.38;;;15.50;99.90;;;;;;5038961;28;20205;-70
2023/09/30 01:01:21;;;;;;;3.83;2.08;;;15.50;99.90;;;;;;5038104;28;20204;-73
2023/09/30 01:03:50;;;;;;;4.00;2.40;;;15.50;99.90;;;;;;5038121;28;20209;-72
2023/09/30 01:06:15;;;;;;;4.20;2.20;;;15.40;99.90;;;;;;5041567;28;20165;-68
2023/09/30 01:08:41;;;;;;;6.35;2.65;;;15.40;99.90;;;;;;5041433;28;20219;-70
2023/09/30 01:11:08;;;;;;;3.40;2.25;;;15.40;99.90;;;;;;5038172;28;20208;-71
2023/09/30 01:13:37;;;;;;;4.82;2.63;;;15.40;99.90;;;;;;5038528;28;20232;-70
2023/09/30 01:16:09;;;;;;;5.35;2.28;;;15.40;99.90;;;;;;5037061;28;20177;-71
2023/09/30 01:18:36;;;;;;;4.65;2.60;;;15.40;99.90;;;;;;5038474;28;20247;-72
2023/09/30 01:21:06;;;;;;;6.28;2.30;;;15.30;99.90;;;;;;5038207;28;21077;-68
2023/09/30 01:23:35;;;;;;;3.63;2.22;;;15.30;99.90;;;;;;5037504;28;20259;-71
2023/09/30 01:26:18;;;;;;;4.50;2.75;;;15.30;99.90;;;;;;5038235;28;20268;-71
2023/09/30 01:28:43;;;;;;;4.63;2.55;;;15.30;99.90;;;;;;5037490;28;20186;-71
2023/09/30 01:31:11;;;;;;;5.28;2.83;;;15.30;99.90;;;;;;5037568;28;20272;-72
2023/09/30 01:33:39;;;;;;;3.75;2.17;;;15.30;99.90;;;;;;5037484;28;20189;-71
2023/09/30 01:36:05;;;;;;;4.07;2.10;;;15.30;99.90;;;;;;5036883;28;20185;-73
2023/09/30 01:38:31;;;;;;;5.63;2.40;;;15.30;99.90;;;;;;5037848;28;20203;-71
2023/09/30 01:40:59;;;;;;;4.18;2.40;;;15.30;99.90;;;;;;5038174;28;20276;-72
2023/09/30 01:43:28;;;;;;;4.40;2.53;;;15.40;99.90;;;;;;5042282;28;20264;-71
2023/09/30 01:45:53;;;;;;;3.78;2.50;;;15.40;99.90;;;;;;5064377;28;20198;-70
2023/09/30 01:48:19;;;;;;;6.05;2.90;;;15.40;99.90;;;;;;5043878;28;20226;-71
2023/09/30 01:50:47;;;;;;;4.40;2.45;;;15.40;99.90;;;;;;5058451;28;20212;-72
2023/09/30 01:53:13;;;;;;;4.07;2.58;;;15.30;99.90;;;;;;5041746;28;20181;-71
2023/09/30 01:55:41;;;;;;;4.85;2.88;;;15.40;99.90;;;;;;5038243;28;20170;-71
2023/09/30 01:58:07;;;;;;;4.32;2.60;;;15.40;99.90;;;;;;5042089;28;20189;-72
2023/09/30 02:00:35;;;;;;;5.50;2.70;;;15.30;99.90;;;;;;5040926;28;20189;-72
2023/09/30 02:03:00;;;;;;;5.32;2.83;;;15.40;99.90;;;;;;5041311;28;20169;-71
2023/09/30 02:05:28;;;;;;;6.57;2.80;;;15.40;99.90;;;;;;5038284;28;20197;-71
2023/09/30 02:07:54;;;;;;;4.55;2.80;;;15.30;99.90;;;;;;5038729;28;20310;-72
2023/09/30 02:10:20;;;;;;;7.32;3.00;;;15.30;99.90;;;;;;5041497;28;20207;-71
2023/09/30 02:12:46;;;;;;;5.32;2.63;;;15.30;99.90;;;;;;5039707;28;20197;-70
2023/09/30 02:15:16;;;;;;;7.28;2.80;;;15.30;99.90;;;;;;5040656;28;20278;-72
2023/09/30 02:17:45;;;;;;;5.10;2.85;;;15.30;99.90;;;;;;5044736;28;20192;-72
2023/09/30 02:20:15;;;;;;;4.15;2.47;;;15.40;99.90;;;;;;5043908;28;20176;-72
2023/09/30 02:22:47;;;;;;;4.68;2.72;;;15.30;99.90;;;;;;5041732;28;20208;-71
2023/09/30 02:25:13;;;;;;;3.70;2.63;;;15.30;99.90;;;;;;5039796;28;20227;-71
2023/09/30 02:27:42;;;;;;;3.40;2.60;;;15.30;99.90;;;;;;5042990;28;20227;-70
2023/09/30 02:30:10;;;;;;;3.78;2.45;;;15.30;99.90;;;;;;5041322;28;20177;-72
2023/09/30 02:32:40;;;;;;;4.60;3.03;;;15.30;99.90;;;;;;5039313;28;20208;-72
2023/09/30 02:35:13;;;;;;;3.90;2.45;;;15.30;99.90;;;;;;5056377;28;20184;-71
2023/09/30 02:37:41;;;;;;;3.67;2.45;;;15.30;99.90;;;;;;5042800;28;20279;-70
2023/09/30 02:40:09;;;;;;;4.75;2.70;;;15.30;99.90;;;;;;5065767;28;20236;-72
2023/09/30 02:42:38;;;;;;;5.00;2.65;;;15.30;99.90;;;;;;5039442;28;20264;-72
2023/09/30 02:45:05;;;;;;;4.68;2.70;;;15.30;99.90;;;;;;5040825;28;20187;-72
2023/09/30 02:47:32;;;;;;;4.75;2.50;;;15.30;99.90;;;;;;5042663;28;20236;-71
2023/09/30 02:49:58;;;;;;;4.13;2.65;;;15.30;99.90;;;;;;5044083;28;20193;-72
2023/09/30 02:52:28;;;;;;;5.10;2.63;;;15.30;99.90;;;;;;5041612;28;20185;-72
2023/09/30 02:54:54;;;;;;;5.85;2.58;;;15.30;99.90;;;;;;5040768;28;20177;-72
2023/09/30 02:57:23;;;;;;;5.03;2.80;;;15.30;99.90;;;;;;5039536;28;20185;-72
2023/09/30 02:59:49;;;;;;;5.00;2.67;;;15.30;99.90;;;;;;5060755;28;20205;-69
2023/09/30 03:02:15;;;;;;;4.95;2.55;;;15.30;99.90;;;;;;5039268;28;20189;-68
2023/09/30 03:04:43;;;;;;;4.05;2.45;;;15.30;99.90;;;;;;5039694;28;20264;-70
2023/09/30 03:07:09;;;;;;;4.90;2.60;;;15.30;99.90;;;;;;5037432;28;20208;-71
2023/09/30 03:09:37;;;;;;;3.65;2.20;;;15.30;99.90;;;;;;5040242;28;20181;-70
2023/09/30 03:12:08;;;;;;;4.93;2.90;;;15.20;99.90;;;;;;5040731;28;20197;-71
2023/09/30 03:14:36;;;;;;;6.30;2.80;;;15.20;99.90;;;;;;5037952;28;20170;-69
2023/09/30 03:17:04;;;;;;;4.75;2.70;;;15.20;99.90;;;;;;5039078;28;20181;-70
2023/09/30 03:19:30;;;;;;;5.47;2.60;;;15.20;99.90;;;;;;5040676;28;20211;-70
2023/09/30 03:21:56;;;;;;;4.40;2.50;;;15.20;99.90;;;;;;5038898;28;20177;-68
2023/09/30 03:24:24;;;;;;;3.78;2.35;;;15.20;99.90;;;;;;5039482;28;20189;-70
2023/09/30 03:26:50;;;;;;;4.28;2.30;;;15.20;99.90;;;;;;5037920;28;20201;-69
2023/09/30 03:29:17;;;;;;;5.53;2.33;;;15.20;99.90;;;;;;5040252;28;20184;-69
2023/09/30 03:31:48;;;;;;;4.28;2.13;;;15.20;99.90;;;;;;5041582;28;20185;-69
2023/09/30 03:34:16;;;;;;;3.65;2.53;;;15.20;99.90;;;;;;5042531;28;20211;-71
2023/09/30 03:36:42;;;;;;;3.38;2.17;;;15.10;99.90;;;;;;5038020;28;20181;-71
2023/09/30 03:39:08;;;;;;;5.32;2.33;;;15.10;99.90;;;;;;5042226;28;20203;-71
2023/09/30 03:41:36;;;;;;;6.07;2.47;;;15.10;99.90;;;;;;5041379;28;20184;-72
2023/09/30 03:44:05;;;;;;;6.75;2.53;;;15.10;99.90;;;;;;5040767;28;20197;-70
2023/09/30 03:46:30;;;;;;;4.38;2.30;;;15.00;99.90;;;;;;5039773;28;20216;-71
2023/09/30 03:48:56;;;;;;;4.40;2.30;;;15.00;99.90;;;;;;5039939;28;20180;-71
2023/09/30 03:51:24;;;;;;;5.00;2.28;;;15.00;99.90;;;;;;5039421;28;20177;-71
2023/09/30 03:53:51;;;;;;;4.38;3.05;;;14.90;99.90;;;;;;5041522;28;20221;-71
2023/09/30 03:56:18;;;;;;;3.72;2.47;;;14.90;99.90;;;;;;5042556;28;20254;-69
2023/09/30 03:58:48;;;;;;;5.35;2.30;;;14.90;99.90;;;;;;5038890;28;20173;-70
2023/09/30 04:01:13;;;;;;;3.00;2.35;;;14.90;99.90;;;;;;5037974;28;20211;-68
2023/09/30 04:03:40;;;;;;;3.83;2.20;;;14.90;99.90;;;;;;5040854;28;20197;-71
2023/09/30 04:06:09;;;;;;;3.25;2.33;;;14.80;99.90;;;;;;5038121;28;20185;-71
2023/09/30 04:08:35;;;;;;;4.05;2.78;;;14.80;99.90;;;;;;5037783;28;20216;-71
2023/09/30 04:11:03;;;;;;;2.95;2.35;;;14.80;99.90;;;;;;5041109;28;20242;-71
2023/09/30 04:13:30;;;;;;;4.00;2.28;;;14.70;99.90;;;;;;5062221;28;20224;-70
2023/09/30 04:15:58;;;;;;;4.35;2.40;;;14.70;99.90;;;;;;5038819;28;20467;-71
2023/09/30 04:18:25;;;;;;;4.47;2.50;;;14.60;99.90;;;;;;5040132;28;20267;-71
2023/09/30 04:20:54;;;;;;;5.65;2.60;;;14.60;99.90;;;;;;5041116;28;20201;-72
2023/09/30 04:23:22;;;;;;;4.93;2.63;;;14.50;99.90;;;;;;5063344;28;20185;-72
2023/09/30 04:25:50;;;;;;;6.75;4.55;;;14.60;99.90;;;;;;5055419;28;20205;-71
2023/09/30 04:28:20;;;;;;;9.55;5.90;;;14.50;99.90;;;;;;5037941;28;20207;-70
2023/09/30 04:30:50;;;;;;;7.80;4.88;;;14.50;99.90;;;;;;5039134;28;20165;-71
2023/09/30 04:33:18;;;;;;;4.93;3.60;;;14.50;99.90;;;;;;5040713;28;20228;-70
2023/09/30 04:35:44;;;;;;;5.15;3.45;;;14.50;99.90;;;;;;5037457;28;20191;-71
2023/09/30 04:38:15;;;;;;;4.68;3.30;;;14.50;99.90;;;;;;5036872;28;20189;-71
2023/09/30 04:40:44;;;;;;;5.28;3.25;;;14.50;99.90;;;;;;5052186;28;20209;-71
2023/09/30 04:43:14;;;;;;;5.47;3.55;;;14.50;99.90;;;;;;5039694;28;20201;-66
2023/09/30 04:45:40;;;;;;;5.80;3.03;;;14.50;99.90;;;;;;5038182;28;20246;-67
2023/09/30 04:48:08;;;;;;;4.80;2.88;;;14.50;99.90;;;;;;5054825;28;20211;-67
2023/09/30 04:50:38;;;;;;;4.85;2.95;;;14.50;99.90;;;;;;5039024;28;20207;-66
2023/09/30 04:53:03;;;;;;;5.53;2.80;;;14.40;99.90;;;;;;5037823;28;20235;-65
2023/09/30 04:55:29;;;;;;;5.50;3.70;;;14.40;99.90;;;;;;5038308;28;20177;-65
2023/09/30 04:57:57;;;;;;;5.50;3.90;;;14.30;99.90;;;;;;5036442;28;20177;-66
2023/09/30 05:00:24;;;;;;;6.05;4.13;;;14.30;99.90;;;;;;5039149;28;20208;-65
2023/09/30 05:02:52;;;;;;;6.25;3.60;;;14.30;99.90;;;;;;5036984;28;20260;-65
2023/09/30 05:05:18;;;;;;;4.72;2.97;;;14.20;99.90;;;;;;5038088;28;20284;-65
2023/09/30 05:07:47;;;;;;;4.85;2.90;;;14.10;99.90;;;;;;5035252;28;20217;-65
2023/09/30 05:10:15;;;;;;;7.05;2.95;;;14.20;99.90;;;;;;5037891;28;20200;-65
2023/09/30 05:12:47;;;;;;;6.40;3.17;;;14.20;99.90;;;;;;5036593;28;20241;-65
2023/09/30 05:15:15;;;;;;;5.20;2.78;;;14.10;99.90;;;;;;5038186;28;20181;-64
2023/09/30 05:17:43;;;;;;;3.92;2.75;;;14.10;99.90;;;;;;5040422;28;20200;-65
2023/09/30 05:20:12;;;;;;;6.35;3.38;;;14.10;99.90;;;;;;5042260;28;20338;-65
2023/09/30 05:22:40;;;;;;;5.05;3.83;;;14.10;99.90;;;;;;5041439;28;20204;-66
2023/09/30 05:25:07;;;;;;;5.75;2.95;;;14.10;99.90;;;;;;5046386;28;20263;-66
2023/09/30 05:27:33;;;;;;;5.30;2.92;;;14.20;99.90;;;;;;5040871;28;20238;-66
2023/09/30 05:30:00;;;;;;;4.43;2.67;;;14.20;99.90;;;;;;5040029;28;20261;-65
2023/09/30 05:32:28;;;;;;;4.28;2.50;;;14.20;99.90;;;;;;5040480;28;20268;-66
2023/09/30 05:34:54;;;;;;;5.55;2.67;;;14.20;99.90;;;;;;5043262;28;20193;-65
2023/09/30 05:37:21;;;;;;;4.93;2.72;;;14.10;99.90;;;;;;5041398;28;20201;-66
2023/09/30 05:39:48;;;;;;;4.30;2.63;;;14.10;99.90;;;;;;5043591;28;20244;-65
2023/09/30 05:42:18;;;;;;;9.35;6.10;;;14.10;99.90;;;;;;5039424;28;20189;-65
2023/09/30 05:44:48;;;;;;;5.93;4.00;;;14.10;99.90;;;;;;5040929;28;20212;-66
2023/09/30 05:47:15;;;;;;;6.10;3.85;;;14.10;99.90;;;;;;5043014;28;20208;-67
2023/09/30 05:49:41;;;;;;;4.80;3.15;;;14.10;99.90;;;;;;5043995;28;20279;-66
2023/09/30 05:52:09;;;;;;;5.55;2.80;;;14.10;99.90;;;;;;5042005;28;20199;-65
2023/09/30 05:54:35;;;;;;;5.63;2.80;;;14.10;99.90;;;;;;5044769;28;20197;-65
2023/09/30 05:57:03;;;;;;;5.70;3.03;;;14.10;99.90;;;;;;5042707;28;20192;-66
2023/09/30 05:59:30;;;;;;;4.47;2.97;;;14.10;99.90;;;;;;5042831;28;20272;-66
2023/09/30 06:01:56;;;;;;;3.90;2.35;;;14.10;99.90;;;;;;5041964;28;20243;-66
2023/09/30 06:04:22;;;;;;;4.60;2.38;;;14.10;99.90;;;;;;5042151;28;20173;-66
2023/09/30 06:06:49;;;;;;;3.90;2.78;;;14.10;99.90;;;;;;5043169;28;20242;-66
2023/09/30 06:09:15;;;;;;;17.98;12.60;;;14.10;99.90;;;;;;5041219;28;20209;-65
2023/09/30 06:11:41;;;;;;;8.80;5.82;;;14.00;99.90;;;;;;5042138;28;20208;-66
2023/09/30 06:14:07;;;;;;;7.88;4.55;;;14.10;99.90;;;;;;5041915;28;20469;-67
2023/09/30 06:16:34;;;;;;;5.80;3.95;;;14.10;99.90;;;;;;5040333;28;20197;-67
2023/09/30 06:19:00;;;;;;;5.43;3.58;;;14.10;99.90;;;;;;5039290;28;20189;-66
2023/09/30 06:21:28;;;;;;;5.07;2.97;;;14.10;99.90;;;;;;5039061;28;20178;-66
2023/09/30 06:23:55;;;;;;;5.13;3.10;;;14.10;99.90;;;;;;5040555;28;20177;-65
2023/09/30 06:26:21;;;;;;;4.47;3.03;;;14.10;99.90;;;;;;5038390;28;20209;-66
2023/09/30 06:28:47;;;;;;;4.65;2.95;;;14.20;99.90;;;;;;5040650;28;20215;-66
2023/09/30 06:31:14;;;;;;;6.55;3.05;;;14.20;99.90;;;;;;5043213;28;20252;-66
2023/09/30 06:33:44;;;;;;;4.85;3.10;;;14.20;99.90;;;;;;5042124;28;20211;-66
2023/09/30 06:36:13;;;;;;;4.40;2.80;;;14.20;99.90;;;;;;5041919;28;20400;-66
2023/09/30 06:38:41;;;;;;;4.07;2.65;;;14.30;99.90;;;;;;5038588;28;20229;-68
2023/09/30 06:41:17;;;;;;;4.38;2.72;;;14.30;99.90;;;;;;5040382;28;20268;-68
2023/09/30 06:43:44;;;;;;;4.20;3.03;;;14.30;99.90;;;;;;5039257;28;20209;-68
2023/09/30 06:46:10;;;;;;;5.13;2.50;;;14.30;99.90;;;;;;5064265;28;20181;-68
2023/09/30 06:48:40;;;;;;;4.60;2.50;;;14.30;99.90;;;;;;5038576;28;20289;-67
2023/09/30 06:51:05;;;;;;;2.90;2.45;;;14.40;99.90;;;;;;5039803;28;20177;-68
2023/09/30 06:53:33;;;;;;;3.40;2.50;;;14.40;99.90;;;;;;5064836;28;20179;-68
2023/09/30 06:56:04;;;;;;;3.50;2.47;;;14.40;99.90;;;;;;5037488;28;20187;-67
2023/09/30 06:58:30;;;;;;;3.42;2.58;;;14.50;99.90;;;;;;5040131;28;20216;-67
2023/09/30 07:00:56;;;;;;;3.60;2.42;;;14.50;99.90;;;;;;5038947;28;20185;-67
2023/09/30 07:03:22;;;;;;;5.95;2.60;;;14.50;99.90;;;;;;5040770;28;20206;-68
2023/09/30 07:05:50;;;;;;;3.90;2.55;;;14.50;99.90;;;;;;5042495;28;20172;-67
2023/09/30 07:08:21;;;;;;;3.88;2.70;;;14.60;99.90;;;;;;5055380;28;20219;-66
2023/09/30 07:10:49;;;;;;;4.47;3.15;;;14.60;99.90;;;;;;5038908;28;20184;-66
2023/09/30 07:13:16;;;;;;;4.90;2.95;;;14.60;99.90;;;;;;5038905;28;20177;-67
2023/09/30 07:15:42;;;;;;;4.68;3.45;;;14.70;99.90;;;;;;5038949;28;20201;-67
2023/09/30 07:18:12;;;;;;;6.80;4.25;;;14.70;99.90;;;;;;5040663;28;20174;-66
2023/09/30 07:20:42;;;;;;;5.10;3.90;;;14.70;99.90;;;;;;5041805;28;20188;-65
2023/09/30 07:23:09;;;;;;;5.47;3.58;;;14.70;99.90;;;;;;5061811;28;20280;-66
2023/09/30 07:25:34;;;;;;;6.25;4.20;;;14.80;99.90;;;;;;5037409;28;20193;-66
2023/09/30 07:28:01;;;;;;;5.90;4.05;;;14.80;99.90;;;;;;5040313;28;20212;-66
2023/09/30 07:30:26;;;;;;;6.60;3.70;;;14.80;99.90;;;;;;5039031;28;20185;-66
2023/09/30 07:32:55;;;;;;;5.97;3.80;;;14.80;99.90;;;;;;5041826;28;20260;-66
2023/09/30 07:35:20;;;;;;;6.53;3.50;;;14.80;99.90;;;;;;5042449;28;20181;-66
2023/09/30 07:37:46;;;;;;;8.38;5.03;;;14.80;99.90;;;;;;5039911;28;20255;-66
2023/09/30 07:40:14;;;;;;;5.65;3.47;;;14.90;99.90;;;;;;5040376;28;20265;-65
2023/09/30 07:42:40;;;;;;;4.93;3.80;;;14.90;99.90;;;;;;5057150;28;20201;-66
2023/09/30 07:45:07;;;;;;;6.22;3.17;;;15.00;99.90;;;;;;5040041;28;20180;-66
2023/09/30 07:47:35;;;;;;;5.97;3.78;;;15.00;99.90;;;;;;5038331;28;20284;-66
2023/09/30 07:50:09;;;;;;;5.05;3.55;;;15.10;99.90;;;;;;5038238;28;20205;-66
2023/09/30 07:52:39;;;;;;;4.45;3.30;;;15.10;99.90;;;;;;5038266;28;20184;-66
2023/09/30 07:55:05;;;;;;;6.35;3.70;;;15.10;99.90;;;;;;5038893;28;20200;-66
2023/09/30 07:57:31;;;;;;;7.30;3.60;;;15.20;99.90;;;;;;5039377;28;20176;-66
2023/09/30 07:59:59;;;;;;;6.55;3.50;;;15.20;99.90;;;;;;5038056;28;20185;-65
2023/09/30 08:02:32;;;;;;;5.43;3.67;;;15.30;99.90;;;;;;5039095;28;20246;-66
2023/09/30 08:04:59;;;;;;;5.15;3.17;;;15.40;99.90;;;;;;5038203;28;21102;-66
2023/09/30 08:07:25;;;;;;;4.78;3.17;;;15.40;99.90;;;;;;5038680;28;20196;-66
2023/09/30 08:09:50;;;;;;;4.88;3.03;;;15.50;99.90;;;;;;5038708;28;20177;-66
2023/09/30 08:12:16;;;;;;;5.47;3.03;;;15.50;99.90;;;;;;5037354;28;20195;-66
2023/09/30 08:14:44;;;;;;;5.28;3.30;;;15.60;99.90;;;;;;5036240;28;20280;-66
2023/09/30 08:17:10;;;;;;;4.53;2.90;;;15.60;99.90;;;;;;5037047;28;20177;-66
2023/09/30 08:19:39;;;;;;;4.50;3.30;;;15.70;99.90;;;;;;5038347;28;20964;-66
2023/09/30 08:22:07;;;;;;;5.28;3.35;;;15.70;99.90;;;;;;5038753;28;20201;-66
2023/09/30 08:24:33;;;;;;;5.28;3.55;;;15.80;99.90;;;;;;5038143;28;20185;-67
2023/09/30 08:26:58;;;;;;;6.45;4.65;;;15.90;99.90;;;;;;5038063;28;20455;-66
2023/09/30 08:29:24;;;;;;;6.05;4.10;;;15.90;99.90;;;;;;5037808;28;20195;-66
2023/09/30 08:31:50;;;;;;;5.90;4.32;;;16.00;99.90;;;;;;5038101;28;20192;-66
2023/09/30 08:34:21;;;;;;;5.95;4.00;;;16.10;99.90;;;;;;5037256;28;20223;-67
2023/09/30 08:36:48;;;;;;;5.70;3.63;;;16.20;99.90;;;;;;5038742;28;20184;-66
2023/09/30 08:39:19;;;;;;;6.72;4.32;;;16.20;99.90;;;;;;5037611;28;20196;-66
2023/09/30 08:41:45;;;;;;;4.30;3.45;;;16.30;99.90;;;;;;5041670;28;20197;-66
2023/09/30 08:44:11;;;;;;;6.45;3.88;;;16.40;99.90;;;;;;5039939;28;20252;-66
2023/09/30 08:46:39;;;;;;;5.05;3.60;;;16.50;99.90;;;;;;5038466;28;20267;-67
2023/09/30 08:49:05;;;;;;;6.43;3.63;;;16.60;99.90;;;;;;5037959;28;20464;-66
2023/09/30 08:51:32;;;;;;;6.68;3.88;;;16.60;99.90;;;;;;5039950;28;20220;-66
2023/09/30 08:53:59;;;;;;;4.78;3.42;;;16.70;99.90;;;;;;5044258;28;20286;-67
2023/09/30 08:56:30;;;;;;;4.05;3.10;;;16.80;99.90;;;;;;5043222;28;20184;-66
2023/09/30 08:59:00;;;;;;;6.55;3.78;;;16.90;99.90;;;;;;5049746;28;20192;-66
2023/09/30 09:01:27;;;;;;;5.65;3.67;;;17.10;99.90;;;;;;5043887;28;20209;-66
2023/09/30 09:03:54;;;;;;;4.75;3.58;;;17.20;99.90;;;;;;5055631;28;20170;-67
2023/09/30 09:06:27;;;;;;;5.68;3.75;;;17.30;99.90;;;;;;5040504;28;20177;-66
2023/09/30 09:08:52;;;;;;;5.93;3.42;;;17.40;99.90;;;;;;5041139;28;20197;-66
2023/09/30 09:11:18;;;;;;;5.38;3.40;;;17.50;99.90;;;;;;5059920;28;20173;-66
2023/09/30 09:13:49;;;;;;;5.93;3.38;;;17.60;99.90;;;;;;5043426;28;20243;-66
2023/09/30 09:16:23;;;;;;;6.55;3.15;;;17.80;99.90;;;;;;5042475;28;20226;-66
2023/09/30 09:18:49;;;;;;;5.50;3.67;;;17.90;99.90;;;;;;5040634;28;20193;-69
2023/09/30 09:21:22;;;;;;;6.65;3.47;;;18.10;99.90;;;;;;5041064;28;20191;-68
2023/09/30 09:23:51;;;;;;;5.03;3.50;;;18.20;99.90;;;;;;5042272;28;20181;-68
2023/09/30 09:26:38;;;;;;;5.72;3.13;;;18.50;99.90;;;;;;5042173;28;20200;-67
2023/09/30 09:29:04;;;;;;;5.25;3.83;;;19.10;99.90;;;;;;5040357;28;20177;-69
2023/09/30 09:31:39;;;;;;;4.90;3.60;;;19.80;99.90;;;;;;5039042;28;20351;-69
2023/09/30 09:34:16;;;;;;;5.93;3.35;;;20.60;99.90;;;;;;5039745;28;20208;-67
2023/09/30 09:36:46;;;;;;;5.82;3.47;;;21.50;99.90;;;;;;5055312;28;20662;-67
2023/09/30 09:39:16;;;;;;;6.65;3.15;;;22.10;99.90;;;;;;5042855;28;20192;-67
2023/09/30 09:41:57;;;;;;;4.82;2.90;;;22.50;99.90;;;;;;5038170;28;20181;-67
2023/09/30 09:44:25;;;;;;;3.97;2.70;;;23.00;99.90;;;;;;5042376;28;20188;-68
2023/09/30 09:46:51;;;;;;;3.80;2.80;;;23.30;99.90;;;;;;5040876;28;20212;-67
2023/09/30 09:49:18;;;;;;;4.65;3.42;;;23.40;99.90;;;;;;5041800;28;20216;-67
2023/09/30 09:51:49;;;;;;;5.03;3.00;;;23.60;99.90;;;;;;5040339;28;20196;-67
2023/09/30 09:54:23;;;;;;;4.45;3.03;;;23.80;99.90;;;;;;5040262;28;20193;-65
2023/09/30 09:56:50;;;;;;;5.00;3.42;;;24.20;99.90;;;;;;5040298;28;20173;-67
2023/09/30 09:59:19;;;;;;;3.85;2.92;;;24.50;99.90;;;;;;5040143;28;20201;-67
2023/09/30 10:01:47;;;;;;;4.43;2.95;;;24.70;99.90;;;;;;5042605;28;20284;-67
2023/09/30 10:04:15;;;;;;;4.10;2.53;;;24.90;99.90;;;;;;5044885;28;20192;-66
2023/09/30 10:06:44;;;;;;;4.45;2.50;;;25.00;99.90;;;;;;5042162;28;20200;-68
2023/09/30 10:09:11;;;;;;;4.45;2.75;;;25.10;99.90;;;;;;5042005;28;20174;-67
2023/09/30 10:11:40;;;;;;;3.75;2.90;;;25.30;99.90;;;;;;5058937;28;20201;-68
2023/09/30 10:14:11;;;;;;;4.20;2.60;;;25.40;99.90;;;;;;5041121;28;20165;-67
2023/09/30 10:16:37;;;;;;;3.63;2.30;;;25.50;99.90;;;;;;5043626;28;20267;-68
2023/09/30 10:19:17;;;;;;;2.55;2.00;;;25.50;99.90;;;;;;5039993;28;20260;-67
2023/09/30 10:22:21;;;;;;;4.88;2.80;;;25.50;99.90;;;;;;5041409;28;20181;-67
2023/09/30 10:24:51;;;;;;;3.58;2.30;;;25.30;99.90;;;;;;5041878;28;20208;-67
2023/09/30 10:27:31;;;;;;;2.72;1.85;;;25.10;99.90;;;;;;5039445;28;20212;-68
2023/09/30 10:30:08;;;;;;;4.65;2.22;;;25.00;99.90;;;;;;5040834;28;20188;-68
2023/09/30 10:32:56;;;;;;;2.75;2.08;;;24.80;99.90;;;;;;5039229;28;20188;-68
2023/09/30 10:35:41;;;;;;;2.67;1.88;;;24.80;99.90;;;;;;5038073;28;20176;-68
2023/09/30 10:38:24;;;;;;;2.78;1.92;;;24.80;99.90;;;;;;5040336;28;20221;-68
2023/09/30 10:40:51;;;;;;;3.20;2.15;;;24.80;99.90;;;;;;5039800;28;20196;-68
2023/09/30 10:43:36;;;;;;;3.78;2.05;;;24.80;99.90;;;;;;5039796;28;20189;-68
2023/09/30 10:46:07;;;;;;;3.25;2.20;;;24.80;99.90;;;;;;5040080;28;20265;-67
2023/09/30 10:48:38;;;;;;;2.53;1.95;;;24.80;99.90;;;;;;5042175;28;20201;-68
2023/09/30 10:51:18;;;;;;;3.25;2.10;;;24.80;99.90;;;;;;5037991;28;21129;-67
2023/09/30 10:53:48;;;;;;;3.15;2.05;;;24.80;99.90;;;;;;5039610;28;20226;-67
2023/09/30 10:56:15;;;;;;;2.40;1.88;;;24.80;99.90;;;;;;5038746;28;20264;-70
2023/09/30 10:58:49;;;;;;;2.70;2.08;;;24.90;99.90;;;;;;5038072;28;20211;-70
2023/09/30 11:01:20;;;;;;;3.55;2.13;;;25.00;99.90;;;;;;5041436;28;20216;-70
2023/09/30 11:03:47;;;;;;;2.30;1.77;;;25.10;99.90;;;;;;5038290;28;20486;-69
2023/09/30 11:06:17;;;;;;;2.95;2.10;;;25.20;99.90;;;;;;5040333;28;20184;-70
2023/09/30 11:08:48;;;;;;;3.63;2.28;;;25.30;99.90;;;;;;5039760;28;20204;-67
2023/09/30 11:11:14;;;;;;;3.05;1.67;;;25.30;99.90;;;;;;5039746;28;20185;-67
2023/09/30 11:13:40;;;;;;;3.33;2.10;;;25.40;99.90;;;;;;5040946;28;20204;-67
2023/09/30 11:16:06;;;;;;;3.20;1.73;;;25.50;99.90;;;;;;5041764;28;20185;-67
2023/09/30 11:18:32;;;;;;;3.25;2.13;;;25.50;99.90;;;;;;5041949;28;20390;-67
2023/09/30 11:21:04;;;;;;;5.95;2.10;;;25.30;99.90;;;;;;5058114;28;20205;-68
2023/09/30 11:23:33;;;;;;;3.10;2.03;;;25.00;99.90;;;;;;5046295;28;20192;-67
2023/09/30 11:25:59;;;;;;;3.05;2.03;;;24.80;99.90;;;;;;5042821;28;20254;-67
2023/09/30 11:28:27;;;;;;;4.43;2.10;;;24.70;99.90;;;;;;5041865;28;20197;-67
2023/09/30 11:31:02;;;;;;;3.20;1.92;;;24.50;99.90;;;;;;5043364;28;20197;-67
2023/09/30 11:33:30;;;;;;;3.20;2.10;;;24.40;99.90;;;;;;5041507;28;20224;-67
2023/09/30 11:36:07;;;;;;;2.67;1.80;;;24.20;99.90;;;;;;5040529;28;20200;-67
2023/09/30 11:38:34;;;;;;;2.45;1.85;;;24.10;99.90;;;;;;5038480;28;20287;-67
2023/09/30 11:41:08;;;;;;;2.45;1.60;;;24.00;99.90;;;;;;5039420;28;20271;-67
2023/09/30 11:43:34;;;;;;;5.10;2.10;;;24.10;99.90;;;;;;5041464;28;20208;-67
2023/09/30 11:46:11;;;;;;;2.38;1.50;;;24.20;99.90;;;;;;5039598;28;20239;-67
2023/09/30 11:48:55;;;;;;;2.10;1.67;;;24.30;99.90;;;;;;5042979;28;20197;-68
2023/09/30 11:51:26;;;;;;;3.10;1.88;;;24.20;99.90;;;;;;5038884;28;20180;-67
2023/09/30 11:53:57;;;;;;;2.42;1.70;;;24.00;99.90;;;;;;5038453;28;20169;-68
2023/09/30 11:56:27;;;;;;;2.70;1.88;;;23.80;99.90;;;;;;5037276;28;20246;-68
2023/09/30 11:58:54;;;;;;;2.85;1.85;;;23.60;99.90;;;;;;5038981;28;20296;-67
2023/09/30 12:01:22;;;;;;;2.92;1.67;;;23.30;99.90;;;;;;5039818;28;20184;-67
2023/09/30 12:03:48;;;;;;;2.22;1.55;;;23.10;99.90;;;;;;5036695;28;20323;-67
2023/09/30 12:06:21;;;;;;;2.28;1.77;;;22.80;99.90;;;;;;5041317;28;20189;-67
2023/09/30 12:08:47;;;;;;;2.83;1.70;;;22.70;99.90;;;;;;5055915;28;20208;-67
2023/09/30 12:11:15;;;;;;;3.72;1.80;;;22.70;99.90;;;;;;5037608;28;20201;-67
2023/09/30 12:13:41;;;;;;;2.40;1.67;;;22.70;99.90;;;;;;5036987;28;20271;-66
2023/09/30 12:16:09;;;;;;;3.53;1.90;;;22.90;99.90;;;;;;5038341;28;20177;-67
2023/09/30 12:18:35;;;;;;;2.72;1.58;;;23.00;99.90;;;;;;5055255;28;20251;-68
2023/09/30 12:21:02;;;;;;;3.53;1.75;;;23.10;99.90;;;;;;5036971;28;20319;-67
2023/09/30 12:23:28;;;;;;;2.33;1.55;;;23.30;99.90;;;;;;5036169;28;20177;-67
2023/09/30 12:25:56;;;;;;;3.30;1.52;;;23.40;99.90;;;;;;5037698;28;20180;-67
2023/09/30 12:28:24;;;;;;;2.53;1.67;;;23.50;99.90;;;;;;5040848;28;20220;-67
2023/09/30 12:30:52;;;;;;;3.45;1.63;;;23.40;99.90;;;;;;5059076;28;20358;-67
2023/09/30 12:33:23;;;;;;;2.28;1.58;;;23.30;99.90;;;;;;5039733;28;20195;-67
2023/09/30 12:35:48;;;;;;;3.03;1.85;;;23.30;99.90;;;;;;5042063;28;20268;-67
2023/09/30 12:38:16;;;;;;;2.70;1.60;;;23.40;99.90;;;;;;5041495;28;20279;-67
2023/09/30 12:40:44;;;;;;;2.17;1.48;;;23.50;99.90;;;;;;5041080;28;20181;-68
2023/09/30 12:43:10;;;;;;;2.50;1.63;;;23.70;99.90;;;;;;5041710;28;20233;-67
2023/09/30 12:45:38;;;;;;;2.05;1.60;;;23.80;99.90;;;;;;5040259;28;20337;-67
2023/09/30 12:48:04;;;;;;;3.17;1.85;;;23.90;99.90;;;;;;5039371;28;20220;-67
2023/09/30 12:50:32;;;;;;;2.17;1.30;;;24.00;99.90;;;;;;5037935;28;20201;-67
2023/09/30 12:53:00;;;;;;;2.28;1.63;;;24.10;99.90;;;;;;5039133;28;20188;-67
2023/09/30 12:55:28;;;;;;;2.00;1.30;;;24.20;99.90;;;;;;5036357;28;20177;-67